sensor_id;sensor_type;location;lat;lon;timestamp;pressure;altitude;pressure_sealevel;temperature;humidity
77469;BME280;68840;50.272;12.818;2024-01-27T00:00:06;97148;;;4.3;63.2
77469;BME280;68840;50.272;12.818;2024-01-27T00:02:05;97149;;;4.4;63.2
77469;BME280;68840;50.272;12.818;2024-01-27T00:04:05;97149;;;4.3;63.2
77469;BME280;68840;50.272;12.818;2024-01-27T00:06:05;97148;;;4.3;63.3
77469;BME280;68840;50.272;12.818;2024-01-27T00:08:06;97153;;;4.3;63.3
77469;BME280;68840;50.272;12.818;2024-01-27T00:10:06;97152;;;4.3;63.1
77469;BME280;68840;50.272;12.818;2024-01-27T00:12:06;97160;;;4.2;63.2
77469;BME280;68840;50.272;12.818;2024-01-27T00:14:06;97165;;;4.2;63.1
77469;BME280;68840;50.272;12.818;2024-01-27T00:16:06;97165;;;4.1;62.9
77469;BME280;68840;50.272;12.818;2024-01-27T00:18:05;97172;;;4.1;62.7
77469;BME280;68840;50.272;12.818;2024-01-27T00:20:07;97172;;;4.1;62.2
77469;BME280;68840;50.272;12.818;2024-01-27T00:22:08;97172;;;4.0;61.9
77469;BME280;68840;50.272;12.818;2024-01-27T00:24:06;97178;;;4.1;60.9
77469;BME280;68840;50.272;12.818;2024-01-27T00:26:05;97181;;;4.1;61.0
77469;BME280;68840;50.272;12.818;2024-01-27T00:28:06;97183;;;4.1;60.7
77469;BME280;68840;50.272;12.818;2024-01-27T00:30:07;97189;;;4.0;60.4
77469;BME280;68840;50.272;12.818;2024-01-27T00:32:05;97192;;;4.0;60.1
77469;BME280;68840;50.272;12.818;2024-01-27T00:34:05;97196;;;4.0;60.0
77469;BME280;68840;50.272;12.818;2024-01-27T00:36:05;97204;;;3.9;60.0
77469;BME280;68840;50.272;12.818;2024-01-27T00:38:05;97205;;;3.9;59.6
77469;BME280;68840;50.272;12.818;2024-01-27T00:40:07;97208;;;3.8;59.7
77469;BME280;68840;50.272;12.818;2024-01-27T00:42:05;97204;;;3.7;59.9
77469;BME280;68840;50.272;12.818;2024-01-27T00:44:05;97210;;;3.8;59.6
77469;BME280;68840;50.272;12.818;2024-01-27T00:46:05;97216;;;3.7;59.7
77469;BME280;68840;50.272;12.818;2024-01-27T00:48:06;97222;;;3.7;59.9
77469;BME280;68840;50.272;12.818;2024-01-27T00:50:06;97224;;;3.7;59.9
77469;BME280;68840;50.272;12.818;2024-01-27T00:52:05;97233;;;3.6;59.7
77469;BME280;68840;50.272;12.818;2024-01-27T00:54:05;97233;;;3.6;60.0
77469;BME280;68840;50.272;12.818;2024-01-27T00:56:06;97234;;;3.6;60.5
77469;BME280;68840;50.272;12.818;2024-01-27T00:58:07;97235;;;3.6;60.9
77469;BME280;68840;50.272;12.818;2024-01-27T01:00:07;97234;;;3.6;61.1
77469;BME280;68840;50.272;12.818;2024-01-27T01:02:06;97237;;;3.6;61.2
77469;BME280;68840;50.272;12.818;2024-01-27T01:04:07;97231;;;3.7;61.0
77469;BME280;68840;50.272;12.818;2024-01-27T01:06:05;97230;;;3.8;61.0
77469;BME280;68840;50.272;12.818;2024-01-27T01:08:06;97228;;;3.9;60.8
77469;BME280;68840;50.272;12.818;2024-01-27T01:10:06;97228;;;3.8;60.8
77469;BME280;68840;50.272;12.818;2024-01-27T01:12:05;97228;;;3.9;60.8
77469;BME280;68840;50.272;12.818;2024-01-27T01:14:05;97228;;;3.9;60.9
77469;BME280;68840;50.272;12.818;2024-01-27T01:16:07;97232;;;3.9;60.8
77469;BME280;68840;50.272;12.818;2024-01-27T01:18:05;97233;;;4.0;60.7
77469;BME280;68840;50.272;12.818;2024-01-27T01:20:06;97232;;;4.0;60.5
77469;BME280;68840;50.272;12.818;2024-01-27T01:22:05;97236;;;4.0;60.5
77469;BME280;68840;50.272;12.818;2024-01-27T01:24:06;97240;;;3.9;60.3
77469;BME280;68840;50.272;12.818;2024-01-27T01:26:05;97241;;;3.9;60.3
77469;BME280;68840;50.272;12.818;2024-01-27T01:28:06;97243;;;3.9;59.9
77469;BME280;68840;50.272;12.818;2024-01-27T01:30:06;97249;;;3.9;59.8
77469;BME280;68840;50.272;12.818;2024-01-27T01:32:06;97250;;;3.9;59.7
77469;BME280;68840;50.272;12.818;2024-01-27T01:34:05;97254;;;3.9;59.6
77469;BME280;68840;50.272;12.818;2024-01-27T01:36:06;97256;;;3.9;59.6
77469;BME280;68840;50.272;12.818;2024-01-27T01:38:05;97260;;;3.8;59.7
77469;BME280;68840;50.272;12.818;2024-01-27T01:40:07;97262;;;3.8;59.7
77469;BME280;68840;50.272;12.818;2024-01-27T01:42:05;97259;;;3.8;59.7
77469;BME280;68840;50.272;12.818;2024-01-27T01:44:05;97259;;;3.8;59.8
77469;BME280;68840;50.272;12.818;2024-01-27T01:46:05;97259;;;3.8;59.9
77469;BME280;68840;50.272;12.818;2024-01-27T01:48:07;97259;;;3.7;60.1
77469;BME280;68840;50.272;12.818;2024-01-27T01:50:06;97259;;;3.7;60.4
77469;BME280;68840;50.272;12.818;2024-01-27T01:52:06;97260;;;3.7;60.5
77469;BME280;68840;50.272;12.818;2024-01-27T01:54:06;97261;;;3.7;60.4
77469;BME280;68840;50.272;12.818;2024-01-27T01:56:08;97256;;;3.7;60.6
77469;BME280;68840;50.272;12.818;2024-01-27T01:58:06;97254;;;3.7;60.5
77469;BME280;68840;50.272;12.818;2024-01-27T02:00:06;97251;;;3.7;60.4
77469;BME280;68840;50.272;12.818;2024-01-27T02:02:05;97256;;;3.7;60.4
77469;BME280;68840;50.272;12.818;2024-01-27T02:04:07;97255;;;3.7;60.4
77469;BME280;68840;50.272;12.818;2024-01-27T02:06:06;97257;;;3.7;60.1
77469;BME280;68840;50.272;12.818;2024-01-27T02:08:06;97257;;;3.7;60.2
77469;BME280;68840;50.272;12.818;2024-01-27T02:10:06;97262;;;3.7;60.2
77469;BME280;68840;50.272;12.818;2024-01-27T02:12:06;97264;;;3.7;60.3
77469;BME280;68840;50.272;12.818;2024-01-27T02:14:06;97266;;;3.7;60.3
77469;BME280;68840;50.272;12.818;2024-01-27T02:16:06;97264;;;3.7;60.4
77469;BME280;68840;50.272;12.818;2024-01-27T02:18:05;97268;;;3.7;59.9
77469;BME280;68840;50.272;12.818;2024-01-27T02:20:07;97268;;;3.7;59.5
77469;BME280;68840;50.272;12.818;2024-01-27T02:22:05;97265;;;3.7;59.1
77469;BME280;68840;50.272;12.818;2024-01-27T02:24:07;97263;;;3.7;58.7
77469;BME280;68840;50.272;12.818;2024-01-27T02:26:05;97264;;;3.6;58.5
77469;BME280;68840;50.272;12.818;2024-01-27T02:28:05;97269;;;3.6;58.3
77469;BME280;68840;50.272;12.818;2024-01-27T02:30:06;97273;;;3.6;58.2
77469;BME280;68840;50.272;12.818;2024-01-27T02:32:05;97275;;;3.6;57.9
77469;BME280;68840;50.272;12.818;2024-01-27T02:34:05;97278;;;3.5;58.1
77469;BME280;68840;50.272;12.818;2024-01-27T02:36:05;97279;;;3.5;57.7
77469;BME280;68840;50.272;12.818;2024-01-27T02:38:05;97281;;;3.5;57.6
77469;BME280;68840;50.272;12.818;2024-01-27T02:40:06;97276;;;3.4;57.7
77469;BME280;68840;50.272;12.818;2024-01-27T02:42:06;97278;;;3.4;57.7
77469;BME280;68840;50.272;12.818;2024-01-27T02:44:06;97284;;;3.4;57.6
77469;BME280;68840;50.272;12.818;2024-01-27T02:46:07;97284;;;3.4;57.7
77469;BME280;68840;50.272;12.818;2024-01-27T02:48:06;97283;;;3.4;57.6
77469;BME280;68840;50.272;12.818;2024-01-27T02:50:06;97288;;;3.4;58.1
77469;BME280;68840;50.272;12.818;2024-01-27T02:52:05;97291;;;3.4;58.1
77469;BME280;68840;50.272;12.818;2024-01-27T02:54:05;97291;;;3.3;58.4
77469;BME280;68840;50.272;12.818;2024-01-27T02:56:06;97297;;;3.3;58.1
77469;BME280;68840;50.272;12.818;2024-01-27T02:58:05;97294;;;3.3;58.1
77469;BME280;68840;50.272;12.818;2024-01-27T03:00:06;97296;;;3.3;58.1
77469;BME280;68840;50.272;12.818;2024-01-27T03:02:06;97301;;;3.3;58.1
77469;BME280;68840;50.272;12.818;2024-01-27T03:04:05;97303;;;3.2;58.2
77469;BME280;68840;50.272;12.818;2024-01-27T03:06:05;97307;;;3.2;58.5
77469;BME280;68840;50.272;12.818;2024-01-27T03:08:06;97304;;;3.2;58.5
77469;BME280;68840;50.272;12.818;2024-01-27T03:10:07;97308;;;3.2;58.4
77469;BME280;68840;50.272;12.818;2024-01-27T03:12:05;97316;;;3.2;58.4
77469;BME280;68840;50.272;12.818;2024-01-27T03:14:05;97311;;;3.2;58.7
77469;BME280;68840;50.272;12.818;2024-01-27T03:16:08;97313;;;3.2;58.7
77469;BME280;68840;50.272;12.818;2024-01-27T03:18:05;97313;;;3.2;58.0
77469;BME280;68840;50.272;12.818;2024-01-27T03:20:09;97321;;;3.2;58.6
77469;BME280;68840;50.272;12.818;2024-01-27T03:22:06;97324;;;3.1;58.2
77469;BME280;68840;50.272;12.818;2024-01-27T03:24:05;97330;;;3.2;58.2
77469;BME280;68840;50.272;12.818;2024-01-27T03:26:05;97330;;;3.1;57.9
77469;BME280;68840;50.272;12.818;2024-01-27T03:28:06;97332;;;3.1;57.9
77469;BME280;68840;50.272;12.818;2024-01-27T03:30:07;97329;;;3.1;57.8
77469;BME280;68840;50.272;12.818;2024-01-27T03:32:05;97332;;;3.1;57.6
77469;BME280;68840;50.272;12.818;2024-01-27T03:34:05;97331;;;3.1;57.8
77469;BME280;68840;50.272;12.818;2024-01-27T03:36:09;97329;;;3.1;57.6
77469;BME280;68840;50.272;12.818;2024-01-27T03:38:06;97335;;;3.0;57.4
77469;BME280;68840;50.272;12.818;2024-01-27T03:40:06;97339;;;3.0;57.2
77469;BME280;68840;50.272;12.818;2024-01-27T03:42:05;97345;;;3.0;57.4
77469;BME280;68840;50.272;12.818;2024-01-27T03:44:05;97354;;;3.0;57.2
77469;BME280;68840;50.272;12.818;2024-01-27T03:46:05;97358;;;2.9;57.0
77469;BME280;68840;50.272;12.818;2024-01-27T03:48:06;97359;;;2.9;57.2
77469;BME280;68840;50.272;12.818;2024-01-27T03:50:06;97358;;;2.9;57.3
77469;BME280;68840;50.272;12.818;2024-01-27T03:52:05;97358;;;2.9;57.4
77469;BME280;68840;50.272;12.818;2024-01-27T03:54:06;97361;;;2.9;57.1
77469;BME280;68840;50.272;12.818;2024-01-27T03:56:06;97366;;;2.9;57.5
77469;BME280;68840;50.272;12.818;2024-01-27T03:58:05;97371;;;2.9;57.3
77469;BME280;68840;50.272;12.818;2024-01-27T04:00:06;97376;;;2.9;57.8
77469;BME280;68840;50.272;12.818;2024-01-27T04:02:05;97381;;;2.9;58.1
77469;BME280;68840;50.272;12.818;2024-01-27T04:04:07;97388;;;2.9;58.3
77469;BME280;68840;50.272;12.818;2024-01-27T04:06:05;97394;;;2.9;58.4
77469;BME280;68840;50.272;12.818;2024-01-27T04:08:06;97394;;;2.9;58.7
77469;BME280;68840;50.272;12.818;2024-01-27T04:10:06;97398;;;3.0;58.9
77469;BME280;68840;50.272;12.818;2024-01-27T04:12:06;97403;;;3.0;59.2
77469;BME280;68840;50.272;12.818;2024-01-27T04:14:06;97409;;;3.0;59.2
77469;BME280;68840;50.272;12.818;2024-01-27T04:16:06;97414;;;3.1;59.1
77469;BME280;68840;50.272;12.818;2024-01-27T04:18:08;97419;;;3.1;59.5
77469;BME280;68840;50.272;12.818;2024-01-27T04:20:07;97419;;;3.1;59.9
77469;BME280;68840;50.272;12.818;2024-01-27T04:22:05;97415;;;3.2;59.9
77469;BME280;68840;50.272;12.818;2024-01-27T04:24:05;97415;;;3.2;60.3
77469;BME280;68840;50.272;12.818;2024-01-27T04:26:06;97416;;;3.2;60.4
77469;BME280;68840;50.272;12.818;2024-01-27T04:28:05;97418;;;3.2;60.3
77469;BME280;68840;50.272;12.818;2024-01-27T04:30:07;97420;;;3.1;60.3
77469;BME280;68840;50.272;12.818;2024-01-27T04:32:05;97422;;;3.1;60.3
77469;BME280;68840;50.272;12.818;2024-01-27T04:34:05;97425;;;3.1;59.9
77469;BME280;68840;50.272;12.818;2024-01-27T04:36:07;97427;;;3.2;60.1
77469;BME280;68840;50.272;12.818;2024-01-27T04:38:07;97431;;;3.2;60.1
77469;BME280;68840;50.272;12.818;2024-01-27T04:40:06;97433;;;3.2;59.6
77469;BME280;68840;50.272;12.818;2024-01-27T04:42:06;97433;;;3.2;60.2
77469;BME280;68840;50.272;12.818;2024-01-27T04:44:06;97435;;;3.2;60.2
77469;BME280;68840;50.272;12.818;2024-01-27T04:46:05;97436;;;3.2;60.2
77469;BME280;68840;50.272;12.818;2024-01-27T04:48:05;97444;;;3.2;60.4
77469;BME280;68840;50.272;12.818;2024-01-27T04:50:06;97444;;;3.2;60.4
77469;BME280;68840;50.272;12.818;2024-01-27T04:52:06;97446;;;3.2;60.4
77469;BME280;68840;50.272;12.818;2024-01-27T04:54:05;97443;;;3.2;60.4
77469;BME280;68840;50.272;12.818;2024-01-27T04:56:08;97439;;;3.2;60.1
77469;BME280;68840;50.272;12.818;2024-01-27T04:58:06;97437;;;3.2;60.3
77469;BME280;68840;50.272;12.818;2024-01-27T05:00:10;97438;;;3.3;60.2
77469;BME280;68840;50.272;12.818;2024-01-27T05:02:05;97439;;;3.3;60.2
77469;BME280;68840;50.272;12.818;2024-01-27T05:04:05;97443;;;3.3;60.0
77469;BME280;68840;50.272;12.818;2024-01-27T05:06:07;97448;;;3.3;60.2
77469;BME280;68840;50.272;12.818;2024-01-27T05:08:05;97447;;;3.3;60.2
77469;BME280;68840;50.272;12.818;2024-01-27T05:10:06;97444;;;3.3;59.9
77469;BME280;68840;50.272;12.818;2024-01-27T05:12:05;97442;;;3.3;60.0
77469;BME280;68840;50.272;12.818;2024-01-27T05:14:05;97440;;;3.3;60.1
77469;BME280;68840;50.272;12.818;2024-01-27T05:16:06;97432;;;3.3;59.8
77469;BME280;68840;50.272;12.818;2024-01-27T05:18:05;97430;;;3.3;60.1
77469;BME280;68840;50.272;12.818;2024-01-27T05:20:07;97426;;;3.3;60.2
77469;BME280;68840;50.272;12.818;2024-01-27T05:22:05;97430;;;3.2;60.2
77469;BME280;68840;50.272;12.818;2024-01-27T05:24:05;97432;;;3.2;60.2
77469;BME280;68840;50.272;12.818;2024-01-27T05:26:05;97437;;;3.2;60.0
77469;BME280;68840;50.272;12.818;2024-01-27T05:28:05;97437;;;3.2;60.2
77469;BME280;68840;50.272;12.818;2024-01-27T05:30:07;97441;;;3.1;60.3
77469;BME280;68840;50.272;12.818;2024-01-27T05:32:05;97447;;;3.1;60.3
77469;BME280;68840;50.272;12.818;2024-01-27T05:34:05;97450;;;3.1;60.4
77469;BME280;68840;50.272;12.818;2024-01-27T05:36:05;97452;;;3.1;60.4
77469;BME280;68840;50.272;12.818;2024-01-27T05:38:05;97453;;;3.1;60.4
77469;BME280;68840;50.272;12.818;2024-01-27T05:40:06;97451;;;3.1;60.4
77469;BME280;68840;50.272;12.818;2024-01-27T05:42:05;97449;;;3.1;60.7
77469;BME280;68840;50.272;12.818;2024-01-27T05:44:05;97451;;;3.1;60.5
77469;BME280;68840;50.272;12.818;2024-01-27T05:46:05;97453;;;3.1;60.4
77469;BME280;68840;50.272;12.818;2024-01-27T05:48:06;97457;;;3.1;60.3
77469;BME280;68840;50.272;12.818;2024-01-27T05:50:07;97459;;;3.1;60.5
77469;BME280;68840;50.272;12.818;2024-01-27T05:52:05;97460;;;3.1;60.4
77469;BME280;68840;50.272;12.818;2024-01-27T05:54:05;97465;;;3.1;60.4
77469;BME280;68840;50.272;12.818;2024-01-27T05:56:05;97461;;;3.1;60.4
77469;BME280;68840;50.272;12.818;2024-01-27T05:58:05;97461;;;3.1;60.4
77469;BME280;68840;50.272;12.818;2024-01-27T06:00:06;97459;;;3.1;60.4
77469;BME280;68840;50.272;12.818;2024-01-27T06:02:05;97466;;;3.0;60.4
77469;BME280;68840;50.272;12.818;2024-01-27T06:04:05;97474;;;3.0;60.2
77469;BME280;68840;50.272;12.818;2024-01-27T06:06:05;97477;;;3.0;60.3
77469;BME280;68840;50.272;12.818;2024-01-27T06:08:07;97477;;;3.0;60.6
77469;BME280;68840;50.272;12.818;2024-01-27T06:10:07;97477;;;2.9;60.6
77469;BME280;68840;50.272;12.818;2024-01-27T06:12:06;97473;;;2.9;60.7
77469;BME280;68840;50.272;12.818;2024-01-27T06:14:06;97477;;;2.9;60.6
77469;BME280;68840;50.272;12.818;2024-01-27T06:16:06;97478;;;2.9;60.7
77469;BME280;68840;50.272;12.818;2024-01-27T06:18:05;97484;;;2.9;60.4
77469;BME280;68840;50.272;12.818;2024-01-27T06:20:06;97488;;;2.9;60.5
77469;BME280;68840;50.272;12.818;2024-01-27T06:22:05;97490;;;2.9;60.5
77469;BME280;68840;50.272;12.818;2024-01-27T06:24:05;97492;;;2.9;60.7
77469;BME280;68840;50.272;12.818;2024-01-27T06:26:06;97498;;;2.9;60.7
77469;BME280;68840;50.272;12.818;2024-01-27T06:28:05;97502;;;2.9;60.5
77469;BME280;68840;50.272;12.818;2024-01-27T06:30:06;97506;;;2.9;60.7
77469;BME280;68840;50.272;12.818;2024-01-27T06:32:06;97503;;;2.9;60.8
77469;BME280;68840;50.272;12.818;2024-01-27T06:34:06;97506;;;2.9;60.6
77469;BME280;68840;50.272;12.818;2024-01-27T06:36:08;97505;;;2.9;60.7
77469;BME280;68840;50.272;12.818;2024-01-27T06:38:06;97505;;;2.9;60.6
77469;BME280;68840;50.272;12.818;2024-01-27T06:40:07;97503;;;2.9;60.5
77469;BME280;68840;50.272;12.818;2024-01-27T06:42:05;97504;;;2.9;60.6
77469;BME280;68840;50.272;12.818;2024-01-27T06:44:05;97500;;;2.9;60.5
77469;BME280;68840;50.272;12.818;2024-01-27T06:46:05;97498;;;2.9;60.3
77469;BME280;68840;50.272;12.818;2024-01-27T06:48:06;97501;;;2.9;60.3
77469;BME280;68840;50.272;12.818;2024-01-27T06:50:06;97503;;;2.9;60.4
77469;BME280;68840;50.272;12.818;2024-01-27T06:52:05;97507;;;2.9;60.6
77469;BME280;68840;50.272;12.818;2024-01-27T06:54:05;97512;;;2.9;60.7
77469;BME280;68840;50.272;12.818;2024-01-27T06:56:07;97514;;;2.9;60.7
77469;BME280;68840;50.272;12.818;2024-01-27T06:58:05;97511;;;2.9;60.6
77469;BME280;68840;50.272;12.818;2024-01-27T07:00:06;97516;;;2.8;60.5
77469;BME280;68840;50.272;12.818;2024-01-27T07:02:05;97521;;;2.8;60.7
77469;BME280;68840;50.272;12.818;2024-01-27T07:04:05;97522;;;2.8;60.7
77469;BME280;68840;50.272;12.818;2024-01-27T07:06:05;97525;;;2.8;60.8
77469;BME280;68840;50.272;12.818;2024-01-27T07:08:06;97525;;;2.8;60.8
77469;BME280;68840;50.272;12.818;2024-01-27T07:10:07;97526;;;2.8;60.8
77469;BME280;68840;50.272;12.818;2024-01-27T07:12:08;97530;;;2.8;60.8
77469;BME280;68840;50.272;12.818;2024-01-27T07:14:06;97534;;;2.8;60.9
77469;BME280;68840;50.272;12.818;2024-01-27T07:16:05;97535;;;2.8;60.9
77469;BME280;68840;50.272;12.818;2024-01-27T07:18:05;97533;;;2.8;60.7
77469;BME280;68840;50.272;12.818;2024-01-27T07:20:07;97532;;;2.8;60.9
77469;BME280;68840;50.272;12.818;2024-01-27T07:22:05;97533;;;2.8;60.8
77469;BME280;68840;50.272;12.818;2024-01-27T07:24:05;97534;;;2.8;60.8
77469;BME280;68840;50.272;12.818;2024-01-27T07:26:08;97538;;;2.8;60.8
77469;BME280;68840;50.272;12.818;2024-01-27T07:28:05;97541;;;2.8;60.6
77469;BME280;68840;50.272;12.818;2024-01-27T07:30:08;97541;;;2.8;60.5
77469;BME280;68840;50.272;12.818;2024-01-27T07:32:07;97542;;;2.8;60.6
77469;BME280;68840;50.272;12.818;2024-01-27T07:34:06;97542;;;2.9;60.6
77469;BME280;68840;50.272;12.818;2024-01-27T07:36:05;97541;;;2.9;60.5
77469;BME280;68840;50.272;12.818;2024-01-27T07:38:05;97541;;;2.9;60.6
77469;BME280;68840;50.272;12.818;2024-01-27T07:40:06;97543;;;3.0;60.5
77469;BME280;68840;50.272;12.818;2024-01-27T07:42:06;97546;;;3.0;60.6
77469;BME280;68840;50.272;12.818;2024-01-27T07:44:07;97553;;;3.0;60.5
77469;BME280;68840;50.272;12.818;2024-01-27T07:46:05;97556;;;3.1;60.7
77469;BME280;68840;50.272;12.818;2024-01-27T07:48:06;97556;;;3.1;60.5
77469;BME280;68840;50.272;12.818;2024-01-27T07:50:06;97555;;;3.1;60.5
77469;BME280;68840;50.272;12.818;2024-01-27T07:52:06;97561;;;3.1;60.7
77469;BME280;68840;50.272;12.818;2024-01-27T07:54:06;97563;;;3.1;60.6
77469;BME280;68840;50.272;12.818;2024-01-27T07:56:07;97571;;;3.2;60.4
77469;BME280;68840;50.272;12.818;2024-01-27T07:58:05;97572;;;3.2;60.6
77469;BME280;68840;50.272;12.818;2024-01-27T08:00:06;97568;;;3.2;60.6
77469;BME280;68840;50.272;12.818;2024-01-27T08:02:05;97568;;;3.2;60.4
77469;BME280;68840;50.272;12.818;2024-01-27T08:04:05;97572;;;3.2;60.2
77469;BME280;68840;50.272;12.818;2024-01-27T08:06:10;97576;;;3.2;60.2
77469;BME280;68840;50.272;12.818;2024-01-27T08:08:06;97580;;;3.2;60.2
77469;BME280;68840;50.272;12.818;2024-01-27T08:10:06;97582;;;3.2;60.2
77469;BME280;68840;50.272;12.818;2024-01-27T08:12:07;97588;;;3.2;60.3
77469;BME280;68840;50.272;12.818;2024-01-27T08:14:05;97590;;;3.3;60.0
77469;BME280;68840;50.272;12.818;2024-01-27T08:16:05;97594;;;3.3;59.9
77469;BME280;68840;50.272;12.818;2024-01-27T08:18:05;97592;;;3.3;59.7
77469;BME280;68840;50.272;12.818;2024-01-27T08:20:06;97588;;;3.3;59.9
77469;BME280;68840;50.272;12.818;2024-01-27T08:22:05;97585;;;3.4;59.9
77469;BME280;68840;50.272;12.818;2024-01-27T08:24:05;97587;;;3.4;59.9
77469;BME280;68840;50.272;12.818;2024-01-27T08:26:05;97591;;;3.4;59.9
77469;BME280;68840;50.272;12.818;2024-01-27T08:28:06;97595;;;3.4;59.8
77469;BME280;68840;50.272;12.818;2024-01-27T08:30:07;97600;;;3.4;59.5
77469;BME280;68840;50.272;12.818;2024-01-27T08:32:06;97604;;;3.5;60.0
77469;BME280;68840;50.272;12.818;2024-01-27T08:34:05;97608;;;3.5;59.6
77469;BME280;68840;50.272;12.818;2024-01-27T08:36:05;97611;;;3.5;59.6
77469;BME280;68840;50.272;12.818;2024-01-27T08:38:06;97613;;;3.5;59.5
77469;BME280;68840;50.272;12.818;2024-01-27T08:40:07;97613;;;3.5;59.5
77469;BME280;68840;50.272;12.818;2024-01-27T08:42:05;97615;;;3.6;60.0
77469;BME280;68840;50.272;12.818;2024-01-27T08:44:05;97615;;;3.7;59.5
77469;BME280;68840;50.272;12.818;2024-01-27T08:46:07;97616;;;3.8;59.6
77469;BME280;68840;50.272;12.818;2024-01-27T08:48:07;97617;;;3.9;59.3
77469;BME280;68840;50.272;12.818;2024-01-27T08:50:06;97616;;;4.0;59.3
77469;BME280;68840;50.272;12.818;2024-01-27T08:52:06;97617;;;4.1;58.9
77469;BME280;68840;50.272;12.818;2024-01-27T08:54:05;97624;;;4.2;58.8
77469;BME280;68840;50.272;12.818;2024-01-27T08:56:06;97620;;;4.4;58.4
77469;BME280;68840;50.272;12.818;2024-01-27T08:58:05;97618;;;4.5;58.6
77469;BME280;68840;50.272;12.818;2024-01-27T09:00:07;97616;;;4.6;58.1
77469;BME280;68840;50.272;12.818;2024-01-27T09:02:05;97613;;;4.7;58.1
77469;BME280;68840;50.272;12.818;2024-01-27T09:04:07;97619;;;4.9;58.4
77469;BME280;68840;50.272;12.818;2024-01-27T09:06:06;97616;;;4.9;57.8
77469;BME280;68840;50.272;12.818;2024-01-27T09:08:07;97622;;;5.1;56.6
77469;BME280;68840;50.272;12.818;2024-01-27T09:10:06;97624;;;5.1;56.9
77469;BME280;68840;50.272;12.818;2024-01-27T09:12:08;97622;;;5.2;56.9
77469;BME280;68840;50.272;12.818;2024-01-27T09:14:07;97622;;;5.3;56.6
77469;BME280;68840;50.272;12.818;2024-01-27T09:16:06;97622;;;5.4;56.5
77469;BME280;68840;50.272;12.818;2024-01-27T09:18:05;97618;;;5.4;56.8
77469;BME280;68840;50.272;12.818;2024-01-27T09:20:06;97623;;;5.5;56.4
77469;BME280;68840;50.272;12.818;2024-01-27T09:22:05;97627;;;5.6;56.4
77469;BME280;68840;50.272;12.818;2024-01-27T09:24:06;97634;;;5.6;56.0
77469;BME280;68840;50.272;12.818;2024-01-27T09:26:05;97634;;;5.7;56.5
77469;BME280;68840;50.272;12.818;2024-01-27T09:28:06;97629;;;5.7;56.5
77469;BME280;68840;50.272;12.818;2024-01-27T09:30:06;97628;;;5.8;56.6
77469;BME280;68840;50.272;12.818;2024-01-27T09:32:05;97631;;;5.9;56.1
77469;BME280;68840;50.272;12.818;2024-01-27T09:34:05;97629;;;5.9;55.4
77469;BME280;68840;50.272;12.818;2024-01-27T09:36:06;97635;;;6.0;55.5
77469;BME280;68840;50.272;12.818;2024-01-27T09:38:07;97636;;;6.1;55.4
77469;BME280;68840;50.272;12.818;2024-01-27T09:40:06;97641;;;6.2;55.1
77469;BME280;68840;50.272;12.818;2024-01-27T09:42:07;97644;;;6.2;55.0
77469;BME280;68840;50.272;12.818;2024-01-27T09:44:05;97641;;;6.3;54.9
77469;BME280;68840;50.272;12.818;2024-01-27T09:46:05;97643;;;6.3;54.2
77469;BME280;68840;50.272;12.818;2024-01-27T09:48:07;97643;;;6.3;54.3
77469;BME280;68840;50.272;12.818;2024-01-27T09:50:08;97641;;;6.4;53.6
77469;BME280;68840;50.272;12.818;2024-01-27T09:52:05;97642;;;6.4;54.2
77469;BME280;68840;50.272;12.818;2024-01-27T09:54:05;97641;;;6.4;54.7
77469;BME280;68840;50.272;12.818;2024-01-27T09:56:06;97646;;;6.5;54.1
77469;BME280;68840;50.272;12.818;2024-01-27T09:58:05;97651;;;6.5;54.2
77469;BME280;68840;50.272;12.818;2024-01-27T10:00:10;97653;;;6.6;53.9
77469;BME280;68840;50.272;12.818;2024-01-27T10:02:07;97656;;;6.6;54.7
77469;BME280;68840;50.272;12.818;2024-01-27T10:04:08;97655;;;6.7;54.3
77469;BME280;68840;50.272;12.818;2024-01-27T10:06:08;97656;;;6.8;52.7
77469;BME280;68840;50.272;12.818;2024-01-27T10:08:06;97657;;;6.8;52.4
77469;BME280;68840;50.272;12.818;2024-01-27T10:10:06;97658;;;6.9;52.6
77469;BME280;68840;50.272;12.818;2024-01-27T10:12:06;97655;;;6.9;52.3
77469;BME280;68840;50.272;12.818;2024-01-27T10:14:05;97660;;;6.9;51.8
77469;BME280;68840;50.272;12.818;2024-01-27T10:16:06;97659;;;6.9;51.2
77469;BME280;68840;50.272;12.818;2024-01-27T10:18:06;97657;;;6.9;52.0
77469;BME280;68840;50.272;12.818;2024-01-27T10:20:08;97658;;;6.9;52.8
77469;BME280;68840;50.272;12.818;2024-01-27T10:22:05;97659;;;6.9;52.6
77469;BME280;68840;50.272;12.818;2024-01-27T10:24:06;97658;;;6.9;52.2
77469;BME280;68840;50.272;12.818;2024-01-27T10:26:08;97660;;;6.9;51.8
77469;BME280;68840;50.272;12.818;2024-01-27T10:28:07;97662;;;6.9;51.3
77469;BME280;68840;50.272;12.818;2024-01-27T10:30:15;97666;;;6.9;52.3
77469;BME280;68840;50.272;12.818;2024-01-27T10:32:07;97670;;;6.9;52.5
77469;BME280;68840;50.272;12.818;2024-01-27T10:34:09;97667;;;6.9;52.7
77469;BME280;68840;50.272;12.818;2024-01-27T10:36:07;97670;;;7.0;52.5
77469;BME280;68840;50.272;12.818;2024-01-27T10:38:05;97667;;;7.0;52.7
77469;BME280;68840;50.272;12.818;2024-01-27T10:40:07;97658;;;7.0;51.0
77469;BME280;68840;50.272;12.818;2024-01-27T10:42:05;97657;;;7.0;52.1
77469;BME280;68840;50.272;12.818;2024-01-27T10:44:06;97656;;;7.0;51.0
77469;BME280;68840;50.272;12.818;2024-01-27T10:46:07;97658;;;7.0;52.5
77469;BME280;68840;50.272;12.818;2024-01-27T10:48:07;97663;;;6.9;51.6
77469;BME280;68840;50.272;12.818;2024-01-27T10:50:08;97661;;;6.9;52.4
77469;BME280;68840;50.272;12.818;2024-01-27T10:52:11;97664;;;6.9;52.8
77469;BME280;68840;50.272;12.818;2024-01-27T10:54:09;97665;;;6.9;51.6
77469;BME280;68840;50.272;12.818;2024-01-27T10:56:09;97667;;;6.9;52.5
77469;BME280;68840;50.272;12.818;2024-01-27T10:58:06;97666;;;6.9;52.8
77469;BME280;68840;50.272;12.818;2024-01-27T11:00:06;97666;;;6.9;53.2
77469;BME280;68840;50.272;12.818;2024-01-27T11:02:11;97665;;;6.9;52.7
77469;BME280;68840;50.272;12.818;2024-01-27T11:04:07;97663;;;6.8;51.9
77469;BME280;68840;50.272;12.818;2024-01-27T11:06:07;97665;;;6.8;51.9
77469;BME280;68840;50.272;12.818;2024-01-27T11:08:07;97672;;;6.8;52.0
77469;BME280;68840;50.272;12.818;2024-01-27T11:10:06;97677;;;6.8;52.7
77469;BME280;68840;50.272;12.818;2024-01-27T11:12:06;97679;;;6.9;52.4
77469;BME280;68840;50.272;12.818;2024-01-27T11:14:06;97682;;;6.9;52.1
77469;BME280;68840;50.272;12.818;2024-01-27T11:16:06;97684;;;6.9;52.4
77469;BME280;68840;50.272;12.818;2024-01-27T11:18:06;97682;;;6.9;52.2
77469;BME280;68840;50.272;12.818;2024-01-27T11:20:07;97679;;;6.9;51.9